Terminal Aerodrome Forecast
Issued by NWS

Home | Current Version | Previous Version | Text Only | Print | Product List | Glossary On
Versions: 1 2 3 4 5 6 7 8 9 10 11 12 13 14 15 16 17 18 19 20 21 22 23 24 25 26 27 28 29 30 31 32 33
000
FTAK31 PAFA 041141
TAFAQT
TAF
PAQT 041141Z 0412/0512 00000KT P6SM -RA BKN025 OVC050
      TEMPO 0412/0416 P6SM NSW BKN050
     FM041600 07007KT P6SM SCT050 BKN100
     FM042200 05007KT P6SM SCT090 SCT180=

USA.gov is the U.S. government's official web portal to all federal, state and local government web resources and services.